KDNN/DNN METAR and TAF weather

Enter ICAO airport designator
Station Type Date Time Source
KDNN METAR 2022/06/25 23:15 UTC NOAA

KDNN 252315Z AUTO 00000KT 10SM SCT060 SCT070 OVC120 30/20 A3008 RMK AO2


Station Type Date Time Source
KDNN Decoded METAR 2022/06/25 23:15 UTC NOAA

Dalton, Dalton Municipal Airport, GA, United States (KDNN) 34-43-18N 084-52-09W
Jun 25, 2022 - 07:15 PM EDT / 2022.06.25 2315 UTC
Wind: Calm:0
Visibility: 10 mile(s):0
Sky conditions: overcast
Temperature: 86 F (30 C)
Dew Point: 68 F (20 C)
Relative Humidity: 55%
Pressure (altimeter): 30.08 in. Hg (1018 hPa)
ob: KDNN 252315Z AUTO 00000KT 10SM SCT060 SCT070 OVC120 30/20 A3008 RMK AO2
cycle: 23

Station Type Date Time Source
KDNN TAF UTC NOAA

Error!

Example: see airport list